Time;durP1;ratioP1;P1;durP2;ratioP2;P2;SDS_P1;SDS_P2;PMS_P1;PMS_P2;Temp;Humidity;BMP_temperature;BMP_pressure;BME280_temperature;BME280_humidity;BME280_pressure;Samples;Min_cycle;Max_cycle;Signal;HPM_P1;HPM_P2
2024/01/30 00:03:00;;;;;;;39.38;24.98;;;;;;;2.73;100.00;102242.84;10541297;28;20040;-82
2024/01/30 00:08:01;;;;;;;27.52;24.23;;;;;;;2.77;100.00;102250.16;10528694;28;20059;-82
2024/01/30 00:13:02;;;;;;;34.53;24.52;;;;;;;2.76;100.00;102249.25;10514911;28;20035;-81
2024/01/30 00:18:02;;;;;;;35.10;25.50;;;;;;;2.81;100.00;102239.38;10542968;28;20038;-81
2024/01/30 00:23:03;;;;;;;25.15;16.60;;;;;;;2.85;100.00;102236.34;10510637;28;20040;-81
2024/01/30 00:28:04;;;;;;;36.95;25.42;;;;;;;2.78;100.00;102236.47;10556286;28;20044;-81
2024/01/30 00:33:04;;;;;;;31.83;23.55;;;;;;;2.75;100.00;102238.75;10542771;28;20058;-81
2024/01/30 00:38:07;;;;;;;36.03;23.77;;;;;;;2.74;100.00;102231.75;10524053;28;20066;-81
2024/01/30 00:43:07;;;;;;;30.20;23.95;;;;;;;2.84;100.00;102236.19;10548905;28;20051;-81
2024/01/30 00:48:08;;;;;;;30.42;24.42;;;;;;;2.75;100.00;102237.09;10523689;28;20118;-81
2024/01/30 00:53:08;;;;;;;32.45;22.50;;;;;;;2.71;100.00;102231.44;10550013;28;20425;-82
2024/01/30 00:58:09;;;;;;;21.77;19.15;;;;;;;2.71;100.00;102223.69;10549175;28;20556;-81
2024/01/30 01:03:09;;;;;;;29.17;21.98;;;;;;;2.73;100.00;102224.75;10527415;28;20036;-81
2024/01/30 01:08:10;;;;;;;32.72;21.65;;;;;;;2.60;100.00;102226.09;10566512;28;20551;-81
2024/01/30 01:13:10;;;;;;;29.55;21.40;;;;;;;2.48;100.00;102222.25;10548410;28;20040;-81
2024/01/30 01:18:11;;;;;;;41.53;24.02;;;;;;;2.43;100.00;102215.72;10547240;28;20060;-81
2024/01/30 01:23:11;;;;;;;28.45;23.50;;;;;;;2.38;100.00;102209.16;10548567;28;20092;-81
2024/01/30 01:28:12;;;;;;;30.98;23.42;;;;;;;2.35;100.00;102218.41;10565919;28;20123;-81
2024/01/30 01:33:14;;;;;;;29.60;22.40;;;;;;;2.32;100.00;102212.94;10548515;28;20044;-81
2024/01/30 01:38:14;;;;;;;23.88;15.75;;;;;;;2.23;100.00;102212.00;10546737;28;20126;-81
2024/01/30 01:43:15;;;;;;;30.20;22.42;;;;;;;2.12;100.00;102209.97;10531250;28;20039;-81
2024/01/30 01:48:15;;;;;;;30.85;22.50;;;;;;;2.09;100.00;102209.66;10545644;28;20487;-81
2024/01/30 01:53:16;;;;;;;32.10;21.08;;;;;;;2.00;100.00;102202.78;10521651;28;20038;-82
2024/01/30 01:58:16;;;;;;;24.15;20.10;;;;;;;1.99;100.00;102194.91;10545593;28;20526;-81
2024/01/30 02:03:17;;;;;;;32.35;21.45;;;;;;;1.92;100.00;102192.44;10528190;28;20040;-81
2024/01/30 02:08:17;;;;;;;23.65;20.23;;;;;;;1.90;100.00;102190.59;10544116;28;20398;-82
2024/01/30 02:13:18;;;;;;;29.55;16.85;;;;;;;1.86;100.00;102185.88;10562767;28;20042;-82
2024/01/30 02:18:20;;;;;;;25.73;19.70;;;;;;;1.85;100.00;102199.53;10528517;28;20517;-82
2024/01/30 02:23:20;;;;;;;23.25;16.77;;;;;;;1.76;100.00;102186.56;10542474;28;20047;-81
2024/01/30 02:28:21;;;;;;;33.72;21.90;;;;;;;1.82;100.00;102186.31;10526179;28;20141;-82
2024/01/30 02:33:22;;;;;;;34.08;24.83;;;;;;;1.89;100.00;102177.53;10543539;28;20067;-81
2024/01/30 02:38:23;;;;;;;31.95;24.30;;;;;;;1.97;100.00;102176.63;10525658;28;20051;-82
2024/01/30 02:43:23;;;;;;;33.10;23.37;;;;;;;2.10;100.00;102171.09;10543919;28;20464;-82
2024/01/30 02:48:24;;;;;;;38.77;25.57;;;;;;;2.12;100.00;102172.16;10481998;28;1292708;-81
2024/01/30 02:53:24;;;;;;;37.40;25.52;;;;;;;2.07;100.00;102168.19;10565976;28;20042;-81
2024/01/30 02:58:25;;;;;;;35.78;24.88;;;;;;;2.01;100.00;102168.47;10546190;28;20126;-81
2024/01/30 03:03:25;;;;;;;30.77;22.38;;;;;;;1.97;100.00;102161.16;10565882;28;20072;-81
2024/01/30 03:08:26;;;;;;;29.48;22.48;;;;;;;1.99;100.00;102169.97;10562955;28;20476;-81
2024/01/30 03:13:27;;;;;;;38.88;23.98;;;;;;;1.98;100.00;102162.97;10547022;28;20122;-80
2024/01/30 03:18:27;;;;;;;34.70;25.13;;;;;;;2.02;100.00;102159.06;10527949;28;20448;-81
2024/01/30 03:23:28;;;;;;;33.73;24.37;;;;;;;2.11;100.00;102153.91;10547153;28;20489;-81
2024/01/30 03:28:28;;;;;;;36.80;24.77;;;;;;;2.05;100.00;102157.69;10544686;28;20054;-82
2024/01/30 03:33:29;;;;;;;27.00;17.95;;;;;;;1.96;100.00;102153.25;10564115;28;20131;-82
2024/01/30 03:38:29;;;;;;;25.98;22.73;;;;;;;1.92;100.00;102157.19;10544615;28;20118;-82
2024/01/30 03:43:30;;;;;;;28.67;19.33;;;;;;;1.75;100.00;102150.28;10518351;28;20063;-82
2024/01/30 03:48:30;;;;;;;26.20;19.43;;;;;;;1.73;100.00;102155.28;10569241;28;20194;-82
2024/01/30 03:53:31;;;;;;;28.55;22.17;;;;;;;1.79;100.00;102143.75;10553028;28;20490;-82
2024/01/30 03:58:31;;;;;;;27.33;19.93;;;;;;;1.73;100.00;102139.78;10531833;28;20494;-82
2024/01/30 04:03:32;;;;;;;28.77;18.83;;;;;;;1.72;100.00;102144.81;10564923;27;20109;-82
2024/01/30 04:08:32;;;;;;;26.63;19.65;;;;;;;1.74;100.00;102139.03;10546930;28;20450;-81
2024/01/30 04:13:33;;;;;;;32.92;22.02;;;;;;;1.83;100.00;102128.75;10531957;28;20118;-81
2024/01/30 04:18:34;;;;;;;27.30;18.40;;;;;;;1.86;100.00;102136.81;10534828;28;20075;-82
2024/01/30 04:23:34;;;;;;;30.23;21.42;;;;;;;1.95;100.00;102138.53;10569111;28;20547;-81
2024/01/30 04:28:34;;;;;;;22.90;19.05;;;;;;;1.92;100.00;102136.53;10550646;28;20126;-82
2024/01/30 04:33:35;;;;;;;25.60;18.38;;;;;;;1.92;100.00;102138.22;10569188;28;20462;-82
2024/01/30 04:38:36;;;;;;;31.65;19.20;;;;;;;1.97;100.00;102137.91;10549840;28;20054;-82
2024/01/30 04:43:36;;;;;;;28.00;20.92;;;;;;;2.09;100.00;102134.75;10568783;28;20497;-82
2024/01/30 04:48:37;;;;;;;19.57;13.93;;;;;;;2.08;100.00;102143.25;10545345;28;20127;-83
2024/01/30 04:53:39;;;;;;;23.08;17.13;;;;;;;2.09;100.00;102129.59;10525446;28;20047;-82
2024/01/30 04:58:40;;;;;;;35.47;20.42;;;;;;;2.12;100.00;102124.72;10524920;28;20036;-81
2024/01/30 05:03:40;;;;;;;26.92;17.65;;;;;;;2.26;100.00;102128.75;10541590;28;20118;-83
2024/01/30 05:08:41;;;;;;;29.83;18.67;;;;;;;2.40;100.00;102123.28;10525795;28;20547;-82
2024/01/30 05:13:41;;;;;;;25.95;16.30;;;;;;;2.42;100.00;102120.84;10522656;28;20110;-82
2024/01/30 05:18:42;;;;;;;23.15;16.73;;;;;;;2.54;100.00;102118.59;10524411;28;20042;-82
2024/01/30 05:23:42;;;;;;;25.20;19.35;;;;;;;2.64;100.00;102117.06;10523723;28;20032;-82
2024/01/30 05:28:44;;;;;;;28.60;19.83;;;;;;;2.72;100.00;102114.34;10544894;28;20131;-82
2024/01/30 05:33:44;;;;;;;23.38;16.10;;;;;;;2.91;100.00;102114.50;10510184;28;20399;-82
2024/01/30 05:38:45;;;;;;;22.25;16.17;;;;;;;3.02;100.00;102113.88;10542457;28;20127;-81
2024/01/30 05:43:45;;;;;;;35.50;17.48;;;;;;;3.13;100.00;102107.16;10541076;28;20487;-82
2024/01/30 05:48:46;;;;;;;24.50;17.35;;;;;;;3.25;100.00;102111.69;10501183;28;20042;-82
2024/01/30 05:53:46;;;;;;;26.48;16.25;;;;;;;3.32;100.00;102101.19;10520620;28;20070;-82
2024/01/30 05:58:47;;;;;;;27.92;16.77;;;;;;;3.46;100.00;102095.66;10530437;28;20535;-82
2024/01/30 06:03:48;;;;;;;25.67;17.88;;;;;;;3.55;100.00;102103.41;10536392;28;20149;-82
2024/01/30 06:08:48;;;;;;;25.80;15.98;;;;;;;3.62;100.00;102107.47;10547059;28;20032;-82
2024/01/30 06:13:49;;;;;;;27.20;18.10;;;;;;;3.65;100.00;102115.53;10542318;28;20200;-81
2024/01/30 06:18:49;;;;;;;21.80;15.13;;;;;;;3.81;100.00;102111.06;10563592;28;20042;-81
2024/01/30 06:23:50;;;;;;;23.40;16.48;;;;;;;4.10;100.00;102099.94;10528024;28;20039;-82
2024/01/30 06:28:50;;;;;;;19.92;14.85;;;;;;;4.33;100.00;102095.97;10545079;28;20036;-81
2024/01/30 06:33:51;;;;;;;21.75;16.92;;;;;;;4.53;100.00;102081.34;10517203;28;20044;-82
2024/01/30 06:38:51;;;;;;;28.58;17.42;;;;;;;4.80;100.00;102087.22;10546881;28;20127;-81
2024/01/30 06:43:52;;;;;;;20.88;14.18;;;;;;;5.05;100.00;102092.97;10543633;28;20036;-81
2024/01/30 06:48:52;;;;;;;18.27;13.38;;;;;;;5.24;100.00;102099.78;10542912;28;20060;-81
2024/01/30 06:53:53;;;;;;;18.33;12.63;;;;;;;5.36;100.00;102103.47;10529682;28;20375;-80
2024/01/30 06:58:53;;;;;;;19.20;12.10;;;;;;;5.73;100.00;102101.53;10562978;28;20130;-81
2024/01/30 07:03:54;;;;;;;19.42;12.85;;;;;;;6.10;100.00;102102.91;10527987;28;20468;-81
2024/01/30 07:08:54;;;;;;;17.08;11.80;;;;;;;6.17;100.00;102121.75;10561837;28;20097;-81
2024/01/30 07:13:55;;;;;;;14.25;10.25;;;;;;;6.51;100.00;102120.19;10546073;28;20127;-81
2024/01/30 07:18:56;;;;;;;16.42;10.38;;;;;;;6.80;100.00;102129.53;10518062;28;20451;-81
2024/01/30 07:23:57;;;;;;;18.20;9.57;;;;;;;6.91;100.00;102128.72;10535759;28;20070;-82
2024/01/30 07:28:57;;;;;;;10.70;6.93;;;;;;;7.03;100.00;102127.13;10571612;28;20042;-80
2024/01/30 07:33:58;;;;;;;11.65;7.47;;;;;;;7.05;100.00;102137.69;10551663;28;20126;-81
2024/01/30 07:38:58;;;;;;;11.55;7.07;;;;;;;7.25;100.00;102138.41;10553999;28;20649;-81
2024/01/30 07:43:59;;;;;;;12.65;7.53;;;;;;;7.47;100.00;102123.72;10570209;28;20053;-80
2024/01/30 07:49:00;;;;;;;9.80;6.18;;;;;;;7.54;100.00;102103.38;10532609;28;20062;-82
2024/01/30 07:54:00;;;;;;;14.30;7.28;;;;;;;7.64;100.00;102099.00;10570166;28;20063;-81
2024/01/30 07:59:01;;;;;;;10.10;7.05;;;;;;;7.70;100.00;102085.56;10518099;28;20131;-80
2024/01/30 08:04:01;;;;;;;10.18;5.90;;;;;;;7.79;100.00;102061.91;10552826;28;20048;-80
2024/01/30 08:09:02;;;;;;;9.55;6.75;;;;;;;7.97;100.00;102053.69;10568671;28;20122;-80
2024/01/30 08:14:02;;;;;;;12.50;6.15;;;;;;;7.84;100.00;102044.94;10551148;28;20387;-80
2024/01/30 08:19:03;;;;;;;11.95;7.43;;;;;;;7.83;100.00;102043.13;10549704;28;20114;-81
2024/01/30 08:24:04;;;;;;;9.30;6.55;;;;;;;7.89;100.00;102040.09;10526551;28;20127;-82
2024/01/30 08:29:05;;;;;;;11.02;5.20;;;;;;;8.06;100.00;102041.38;10549168;28;20035;-80
2024/01/30 08:34:05;;;;;;;7.28;5.78;;;;;;;8.18;100.00;102051.84;10550160;28;20039;-81
2024/01/30 08:39:06;;;;;;;7.70;4.75;;;;;;;8.31;100.00;102065.03;10566636;28;20104;-81
2024/01/30 08:44:07;;;;;;;9.13;5.50;;;;;;;8.37;100.00;102077.63;10519294;28;20024;-81
2024/01/30 08:49:08;;;;;;;9.43;5.47;;;;;;;8.52;100.00;102085.75;10571893;27;20056;-79
2024/01/30 08:54:08;;;;;;;8.48;5.15;;;;;;;8.75;100.00;102091.78;10572095;27;20032;-79
2024/01/30 08:59:09;;;;;;;9.48;6.05;;;;;;;8.89;100.00;102091.13;10579728;27;20510;-80
2024/01/30 09:04:09;;;;;;;8.25;4.60;;;;;;;9.09;100.00;102091.69;10548513;28;20042;-79
2024/01/30 09:09:09;;;;;;;7.68;4.65;;;;;;;9.29;100.00;102092.22;10566732;28;20656;-81
2024/01/30 09:14:10;;;;;;;9.65;6.47;;;;;;;9.26;100.00;102100.72;10561301;28;20122;-81
2024/01/30 09:19:11;;;;;;;8.82;5.53;;;;;;;9.27;100.00;102115.59;10557902;27;20499;-81
2024/01/30 09:24:11;;;;;;;8.43;5.50;;;;;;;9.14;100.00;102131.19;10548531;28;20554;-81
2024/01/30 09:29:12;;;;;;;8.68;5.85;;;;;;;9.06;100.00;102135.84;10565472;28;20165;-80
2024/01/30 09:34:13;;;;;;;10.23;5.93;;;;;;;9.04;100.00;102146.16;10564956;28;20028;-84
2024/01/30 09:39:14;;;;;;;12.35;6.97;;;;;;;9.19;100.00;102149.03;10563465;28;20433;-82
2024/01/30 09:44:18;;;;;;;9.23;5.63;;;;;;;9.32;100.00;102148.19;10548040;28;20040;-83
2024/01/30 09:49:18;;;;;;;9.93;5.78;;;;;;;9.50;100.00;102147.72;10522133;28;20067;-83
2024/01/30 09:54:19;;;;;;;8.77;5.55;;;;;;;9.59;100.00;102148.41;10524670;28;20053;-83
2024/01/30 09:59:19;;;;;;;7.47;5.90;;;;;;;9.77;100.00;102160.97;10519237;28;20047;-84
2024/01/30 10:04:20;;;;;;;10.38;6.53;;;;;;;9.79;100.00;102170.75;10553188;28;20063;-84
2024/01/30 10:09:21;;;;;;;10.45;6.45;;;;;;;9.96;100.00;102179.78;10563816;28;20070;-85
2024/01/30 10:14:22;;;;;;;14.40;6.33;;;;;;;10.08;100.00;102178.84;10541660;28;20486;-86
2024/01/30 10:19:22;;;;;;;14.07;6.55;;;;;;;10.12;100.00;102191.34;10549777;28;20126;-84
2024/01/30 10:24:29;;;;;;;16.77;6.72;;;;;;;10.17;100.00;102179.50;10565051;28;20456;-84
2024/01/30 10:29:30;;;;;;;9.45;5.85;;;;;;;10.21;100.00;102184.16;10545045;28;20498;-84
2024/01/30 10:34:30;;;;;;;10.20;5.90;;;;;;;10.31;100.00;102197.88;10518500;28;20087;-83
2024/01/30 10:39:31;;;;;;;11.40;7.35;;;;;;;10.43;100.00;102199.69;10530192;28;20081;-84
2024/01/30 10:45:05;;;;;;;10.57;6.93;;;;;;;10.39;100.00;102194.09;10536570;28;20031;-84
2024/01/30 10:50:07;;;;;;;10.77;5.30;;;;;;;10.39;100.00;102194.09;10547893;28;20070;-84
2024/01/30 10:55:08;;;;;;;17.75;7.57;;;;;;;10.42;100.00;102192.63;10555041;28;20122;-85
2024/01/30 11:00:10;;;;;;;10.40;6.13;;;;;;;10.51;100.00;102202.81;10555298;28;20043;-83
2024/01/30 11:05:11;;;;;;;;;;;;;;;10.59;100.00;102203.38;10515700;28;20117;-84
2024/01/30 11:10:14;;;;;;;17.45;6.60;;;;;;;10.56;100.00;102206.66;10552931;28;20501;-82
2024/01/30 11:15:15;;;;;;;11.57;6.45;;;;;;;10.48;100.00;102213.06;10544652;28;20395;-83
2024/01/30 11:20:25;;;;;;;9.90;6.50;;;;;;;10.41;100.00;102210.84;10552641;28;20471;-84
2024/01/30 11:25:26;;;;;;;9.77;6.88;;;;;;;10.66;100.00;102204.69;10555489;28;20391;-83
2024/01/30 11:30:31;;;;;;;15.45;7.85;;;;;;;11.01;100.00;102216.66;10569851;28;20134;-84
2024/01/30 11:35:35;;;;;;;18.35;8.18;;;;;;;11.12;100.00;102207.78;10552260;28;20061;-83
2024/01/30 11:40:37;;;;;;;12.07;6.28;;;;;;;11.05;100.00;102212.53;10551341;28;20051;-84
2024/01/30 11:45:39;;;;;;;13.60;7.25;;;;;;;11.04;100.00;102218.59;10528569;28;20399;-85
2024/01/30 11:50:42;;;;;;;12.48;7.40;;;;;;;10.98;100.00;102216.44;10518596;27;20043;-83
2024/01/30 11:55:43;;;;;;;12.45;7.35;;;;;;;10.85;100.00;102214.72;10540003;27;20047;-84
2024/01/30 12:00:52;;;;;;;13.57;7.70;;;;;;;10.85;100.00;102204.25;10543075;28;20040;-83
2024/01/30 12:05:58;;;;;;;11.13;7.82;;;;;;;10.96;100.00;102204.94;10523335;28;20062;-84
2024/01/30 12:11:01;;;;;;;13.15;7.45;;;;;;;11.11;100.00;102205.09;10546462;27;20383;-83
2024/01/30 12:16:01;;;;;;;12.60;8.32;;;;;;;11.39;100.00;102205.19;10541155;27;20036;-83
2024/01/30 12:21:02;;;;;;;11.02;7.28;;;;;;;11.60;100.00;102210.94;10528376;28;20559;-84
2024/01/30 12:26:07;;;;;;;13.50;7.72;;;;;;;11.51;100.00;102219.91;10509298;28;20036;-83
2024/01/30 12:31:07;;;;;;;20.02;7.40;;;;;;;11.39;100.00;102225.28;10528348;28;20654;-83
2024/01/30 12:36:08;;;;;;;10.77;6.82;;;;;;;11.33;100.00;102230.09;10525290;28;20123;-85
2024/01/30 12:41:08;;;;;;;12.18;8.13;;;;;;;11.22;100.00;102225.06;10509131;28;20040;-83
2024/01/30 12:46:09;;;;;;;11.30;7.30;;;;;;;11.32;100.00;102234.44;10527841;28;20036;-84
2024/01/30 12:51:09;;;;;;;16.63;9.18;;;;;;;11.48;100.00;102245.94;10560374;28;20067;-83
2024/01/30 12:56:10;;;;;;;11.93;8.45;;;;;;;11.41;100.00;102247.25;10549913;28;20138;-84
2024/01/30 13:01:10;;;;;;;16.17;7.00;;;;;;;11.49;100.00;102260.84;10549023;28;20050;-84
2024/01/30 13:06:11;;;;;;;15.45;8.07;;;;;;;11.33;100.00;102261.56;10533078;28;20122;-86
2024/01/30 13:11:12;;;;;;;22.98;12.50;;;;;;;11.29;100.00;102269.22;10526196;27;20096;-83
2024/01/30 13:16:13;;;;;;;14.87;8.37;;;;;;;11.87;100.00;102271.25;10567697;27;20036;-81
2024/01/30 13:21:13;;;;;;;23.10;9.38;;;;;;;13.27;100.00;102271.94;10562135;27;20427;-83
2024/01/30 13:26:14;;;;;;;10.98;5.93;;;;;;;13.45;100.00;102287.03;10572489;27;20893;-82
2024/01/30 13:31:14;;;;;;;13.30;7.35;;;;;;;15.06;100.00;102323.97;10520190;27;20145;-81
2024/01/30 13:36:15;;;;;;;12.50;5.65;;;;;;;13.34;100.00;102341.56;10546430;27;20100;-80
2024/01/30 13:41:16;;;;;;;8.23;5.00;;;;;;;11.80;100.00;102337.22;10566308;27;20040;-83
2024/01/30 13:46:17;;;;;;;8.65;5.80;;;;;;;11.19;100.00;102344.47;10569066;27;20398;-80
2024/01/30 13:51:17;;;;;;;13.23;5.53;;;;;;;10.97;100.00;102338.66;10550427;28;20126;-81
2024/01/30 13:56:19;;;;;;;10.32;4.55;;;;;;;10.75;100.00;102338.88;10583625;27;20455;-80
2024/01/30 14:01:20;;;;;;;5.32;3.83;;;;;;;10.97;100.00;102348.22;10544618;27;20124;-79
2024/01/30 14:06:20;;;;;;;12.13;3.00;;;;;;;10.65;100.00;102363.50;10571025;27;20118;-78
2024/01/30 14:11:21;;;;;;;5.05;2.67;;;;;;;10.54;100.00;102370.56;10554764;27;20562;-79
2024/01/30 14:16:24;;;;;;;3.42;1.73;;;;;;;11.40;100.00;102395.75;10577870;27;20184;-79
2024/01/30 14:21:24;;;;;;;3.60;1.75;;;;;;;10.61;100.00;102407.66;10571002;27;20406;-78
2024/01/30 14:26:25;;;;;;;3.40;1.40;;;;;;;10.64;100.00;102423.59;10553498;27;20050;-79
2024/01/30 14:31:26;;;;;;;3.88;1.38;;;;;;;10.09;100.00;102422.25;10560514;28;20036;-80
2024/01/30 14:36:27;;;;;;;3.80;0.88;;;;;;;9.69;100.00;102446.28;10528611;28;20043;-82
2024/01/30 14:41:28;;;;;;;6.72;1.20;;;;;;;9.57;100.00;102452.31;10544363;28;20067;-81
2024/01/30 14:46:29;;;;;;;1.58;0.85;;;;;;;9.24;100.00;102448.09;10562235;28;20066;-81
2024/01/30 14:51:30;;;;;;;4.13;1.73;;;;;;;9.52;100.00;102451.94;10544743;28;20044;-80
2024/01/30 14:56:30;;;;;;;2.08;1.17;;;;;;;9.62;100.00;102456.19;10562868;28;20539;-80
2024/01/30 15:01:31;;;;;;;3.92;1.38;;;;;;;9.74;100.00;102466.66;10555808;28;20131;-80
2024/01/30 15:06:31;;;;;;;3.95;1.30;;;;;;;9.60;100.00;102466.50;10545355;28;20097;-81
2024/01/30 15:11:33;;;;;;;2.60;1.30;;;;;;;9.34;100.00;102473.22;10561519;28;20131;-80
2024/01/30 15:16:33;;;;;;;7.45;2.05;;;;;;;9.14;100.00;102482.13;10545749;28;20045;-79
2024/01/30 15:21:34;;;;;;;2.25;1.00;;;;;;;9.03;100.00;102489.09;10526821;28;20047;-80
2024/01/30 15:26:34;;;;;;;9.75;2.72;;;;;;;8.99;100.00;102499.19;10542209;28;20487;-80
2024/01/30 15:31:34;;;;;;;3.50;1.48;;;;;;;8.93;100.00;102504.81;10543474;28;20119;-80
2024/01/30 15:36:35;;;;;;;1.33;0.60;;;;;;;8.89;100.00;102511.50;10545085;28;20126;-79
2024/01/30 15:41:36;;;;;;;2.15;1.38;;;;;;;8.87;100.00;102520.91;10515694;28;20048;-79
2024/01/30 15:46:36;;;;;;;2.53;0.98;;;;;;;8.87;100.00;102519.97;10535577;28;20034;-77
2024/01/30 15:51:37;;;;;;;2.53;1.38;;;;;;;8.74;100.00;102539.84;10553006;28;20070;-78
2024/01/30 15:56:37;;;;;;;3.92;1.55;;;;;;;8.63;100.00;102545.91;10571115;27;20035;-79
2024/01/30 16:01:38;;;;;;;5.15;1.45;;;;;;;8.49;100.00;102561.31;10559976;27;20122;-79
2024/01/30 16:06:38;;;;;;;3.13;1.98;;;;;;;8.38;100.00;102575.13;10569817;28;20067;-80
2024/01/30 16:11:39;;;;;;;7.20;2.17;;;;;;;8.29;100.00;102574.38;10549173;28;20139;-79
2024/01/30 16:16:40;;;;;;;8.32;3.85;;;;;;;8.12;100.00;102581.66;10550732;28;20059;-80
2024/01/30 16:21:43;;;;;;;14.95;4.68;;;;;;;8.03;100.00;102589.63;10549400;28;20721;-79
2024/01/30 16:26:44;;;;;;;9.60;3.97;;;;;;;7.90;100.00;102603.31;10549758;28;20097;-78
2024/01/30 16:31:44;;;;;;;6.35;2.85;;;;;;;7.83;100.00;102606.16;10567746;28;20071;-79
2024/01/30 16:36:45;;;;;;;7.63;2.88;;;;;;;7.75;100.00;102609.78;10549759;28;20040;-79
2024/01/30 16:41:45;;;;;;;7.53;2.70;;;;;;;7.70;100.00;102616.28;10549634;28;20066;-79
2024/01/30 16:46:46;;;;;;;7.93;1.95;;;;;;;7.63;100.00;102625.28;10533124;28;20122;-79
2024/01/30 16:51:46;;;;;;;10.00;2.90;;;;;;;7.56;100.00;102629.03;10565805;28;20813;-80
2024/01/30 16:56:49;;;;;;;7.65;3.10;;;;;;;7.51;100.00;102639.84;10549144;28;20165;-78
2024/01/30 17:01:50;;;;;;;4.70;2.53;;;;;;;7.48;100.00;102653.50;10549986;28;20122;-79
2024/01/30 17:06:54;;;;;;;5.63;2.45;;;;;;;7.41;100.00;102657.25;10565621;28;20040;-80
2024/01/30 17:11:54;;;;;;;11.45;3.45;;;;;;;7.33;100.00;102656.56;10567357;28;20529;-78
2024/01/30 17:16:55;;;;;;;9.82;4.00;;;;;;;7.26;100.00;102654.19;10566057;28;20119;-78
2024/01/30 17:21:55;;;;;;;17.55;3.95;;;;;;;7.20;100.00;102658.84;10563373;28;20062;-78
2024/01/30 17:26:56;;;;;;;4.55;2.78;;;;;;;7.16;100.00;102672.34;10549792;28;20038;-79
2024/01/30 17:31:56;;;;;;;13.68;3.08;;;;;;;7.14;100.00;102673.91;10547839;28;20039;-78
2024/01/30 17:36:57;;;;;;;6.32;2.80;;;;;;;7.09;100.00;102681.31;10546397;28;20415;-79
2024/01/30 17:41:58;;;;;;;6.05;2.80;;;;;;;7.11;100.00;102678.84;10565870;28;20035;-78
2024/01/30 17:46:58;;;;;;;6.13;2.20;;;;;;;7.01;100.00;102680.59;10547313;28;20482;-79
2024/01/30 17:51:59;;;;;;;4.20;1.90;;;;;;;6.97;100.00;102686.31;10532750;28;20086;-79
2024/01/30 17:56:59;;;;;;;6.65;2.45;;;;;;;6.89;100.00;102687.28;10547192;28;20059;-79
2024/01/30 18:02:00;;;;;;;6.25;2.95;;;;;;;6.87;100.00;102688.84;10513210;28;20115;-76
2024/01/30 18:07:00;;;;;;;5.25;2.83;;;;;;;6.80;100.00;102691.66;10525212;28;20072;-78
2024/01/30 18:12:01;;;;;;;5.43;3.50;;;;;;;6.78;100.00;102691.53;10520342;28;20135;-78
2024/01/30 18:17:01;;;;;;;6.03;3.30;;;;;;;6.70;100.00;102696.00;10521188;28;20064;-79
2024/01/30 18:22:02;;;;;;;7.90;5.32;;;;;;;6.66;100.00;102698.19;10497984;28;20035;-79
2024/01/30 18:27:03;;;;;;;6.57;4.25;;;;;;;6.56;100.00;102707.75;10521168;28;20119;-79
2024/01/30 18:32:04;;;;;;;7.88;4.53;;;;;;;6.54;100.00;102714.50;10517796;28;20105;-78
2024/01/30 18:37:06;;;;;;;8.35;5.32;;;;;;;6.56;100.00;102719.81;10495609;28;20048;-79
2024/01/30 18:42:06;;;;;;;;;;;;;;;6.52;100.00;102718.63;10546947;28;20077;-80
2024/01/30 18:47:06;;;;;;;8.43;4.72;;;;;;;6.43;100.00;102716.06;10526318;28;20011;-79
2024/01/30 18:52:07;;;;;;;8.65;5.15;;;;;;;6.36;100.00;102708.47;10526397;28;20122;-78
2024/01/30 18:57:08;;;;;;;11.90;5.32;;;;;;;6.27;100.00;102710.19;10517591;28;20122;-79
2024/01/30 19:02:08;;;;;;;10.13;6.07;;;;;;;6.20;100.00;102716.50;10503891;28;20504;-77
2024/01/30 19:07:08;;;;;;;9.13;5.75;;;;;;;6.12;100.00;102710.56;10517770;28;20040;-79
2024/01/30 19:12:09;;;;;;;11.27;5.40;;;;;;;6.13;100.00;102716.69;10540609;28;20060;-78
2024/01/30 19:17:10;;;;;;;10.63;7.03;;;;;;;6.15;100.00;102713.44;10533509;28;20130;-78
2024/01/30 19:22:10;;;;;;;9.40;4.82;;;;;;;6.16;100.00;102714.38;10537333;28;20450;-78
2024/01/30 19:27:11;;;;;;;10.02;5.43;;;;;;;6.17;100.00;102722.31;10555033;28;20047;-77
2024/01/30 19:32:11;;;;;;;11.25;7.38;;;;;;;6.17;100.00;102726.63;10550804;28;20032;-78
2024/01/30 19:37:12;;;;;;;12.10;5.97;;;;;;;6.16;100.00;102722.19;10525416;28;20044;-78
2024/01/30 19:42:12;;;;;;;12.73;6.60;;;;;;;6.12;100.00;102735.66;10548418;28;20391;-78
2024/01/30 19:47:13;;;;;;;16.42;8.57;;;;;;;6.16;100.00;102729.97;10527179;28;20527;-78
2024/01/30 19:52:14;;;;;;;12.65;7.60;;;;;;;6.11;100.00;102742.53;10528931;28;20136;-78
2024/01/30 19:57:15;;;;;;;14.27;7.28;;;;;;;6.04;100.00;102754.81;10545009;28;20369;-78
2024/01/30 20:02:19;;;;;;;14.48;8.38;;;;;;;6.01;100.00;102756.34;10532828;28;20063;-77
2024/01/30 20:07:20;;;;;;;13.45;8.70;;;;;;;6.04;100.00;102760.91;10520556;28;20430;-78
2024/01/30 20:12:20;;;;;;;14.03;8.03;;;;;;;6.01;100.00;102763.22;10531678;28;20487;-77
2024/01/30 20:17:21;;;;;;;11.25;8.18;;;;;;;5.99;100.00;102772.50;10525453;28;20130;-77
2024/01/30 20:22:21;;;;;;;12.13;8.30;;;;;;;5.94;100.00;102772.06;10528900;28;20130;-77
2024/01/30 20:27:22;;;;;;;14.90;9.68;;;;;;;5.92;100.00;102783.06;10544594;28;20124;-77
2024/01/30 20:32:22;;;;;;;14.40;9.35;;;;;;;5.93;100.00;102785.84;10539997;28;20175;-78
2024/01/30 20:37:24;;;;;;;13.43;9.52;;;;;;;5.90;100.00;102790.75;10530549;28;20098;-77
2024/01/30 20:42:25;;;;;;;14.55;8.65;;;;;;;5.86;100.00;102796.41;10549558;28;20127;-77
2024/01/30 20:47:25;;;;;;;17.65;10.60;;;;;;;5.79;100.00;102784.47;10543054;28;20028;-78
2024/01/30 20:52:26;;;;;;;17.58;11.35;;;;;;;5.69;100.00;102802.53;10516375;28;20054;-77
2024/01/30 20:57:26;;;;;;;20.50;12.88;;;;;;;5.59;100.00;102801.63;10539072;28;20032;-77
2024/01/30 21:02:27;;;;;;;17.27;11.80;;;;;;;5.56;100.00;102809.09;10548440;28;20119;-78
2024/01/30 21:07:27;;;;;;;21.95;14.68;;;;;;;5.59;100.00;102819.81;10512033;28;20048;-77
2024/01/30 21:12:28;;;;;;;19.38;12.63;;;;;;;5.63;100.00;102812.31;10527238;28;20122;-77
2024/01/30 21:17:29;;;;;;;16.77;10.68;;;;;;;5.64;100.00;102812.47;10540629;28;20043;-79
2024/01/30 21:22:29;;;;;;;16.08;10.88;;;;;;;5.62;100.00;102810.47;10523440;28;20490;-78
2024/01/30 21:27:30;;;;;;;20.65;12.55;;;;;;;5.61;100.00;102803.44;10522846;28;20123;-78
2024/01/30 21:32:31;;;;;;;21.35;14.38;;;;;;;5.64;100.00;102812.47;10508740;28;20093;-77
2024/01/30 21:37:33;;;;;;;17.85;11.43;;;;;;;5.68;100.00;102821.47;10516350;28;20170;-78
2024/01/30 21:42:33;;;;;;;21.55;12.32;;;;;;;5.67;100.00;102825.78;10527367;28;20116;-78
2024/01/30 21:47:34;;;;;;;22.75;14.85;;;;;;;5.66;100.00;102823.94;10549586;28;20181;-78
2024/01/30 21:52:34;;;;;;;30.13;13.60;;;;;;;5.66;100.00;102841.19;10525422;28;20467;-78
2024/01/30 21:57:35;;;;;;;22.05;14.68;;;;;;;5.70;100.00;102843.34;10489573;28;20074;-78
2024/01/30 22:02:36;;;;;;;23.27;15.07;;;;;;;5.69;100.00;102839.84;10524584;28;20036;-79
2024/01/30 22:07:36;;;;;;;22.87;13.27;;;;;;;5.65;100.00;102842.91;10507208;28;20062;-79
2024/01/30 22:12:38;;;;;;;20.05;14.48;;;;;;;5.66;100.00;102849.00;10508761;28;20266;-79
2024/01/30 22:17:38;;;;;;;26.80;15.90;;;;;;;5.64;100.00;102859.25;10506348;28;20088;-79
2024/01/30 22:22:39;;;;;;;25.80;15.38;;;;;;;5.65;100.00;102866.28;10522889;28;20990;-79
2024/01/30 22:27:40;;;;;;;21.52;14.70;;;;;;;5.65;100.00;102870.53;10517563;28;20131;-78
2024/01/30 22:32:41;;;;;;;24.95;16.50;;;;;;;5.63;100.00;102872.06;10533746;28;20395;-79
2024/01/30 22:37:41;;;;;;;25.55;18.15;;;;;;;5.64;100.00;102874.84;10511098;28;20135;-79
2024/01/30 22:42:42;;;;;;;33.45;19.00;;;;;;;5.64;100.00;102876.50;10522968;28;20115;-79